createdAt,value
2022-10-05T00:01:34.393Z,40.48337
2022-10-05T00:06:36.034Z,40.6402
2022-10-05T00:11:37.616Z,41.62043
2022-10-05T00:16:39.425Z,42.09519
2022-10-05T00:21:42.076Z,43.4541
2022-10-05T00:26:43.949Z,43.34977
2022-10-05T00:31:45.815Z,43.6093
2022-10-05T00:36:47.895Z,43.04858
2022-10-05T00:41:49.846Z,43.99334
2022-10-05T00:46:51.537Z,43.50855
2022-10-05T00:51:53.161Z,44.17186
2022-10-05T00:56:54.752Z,45.34527
2022-10-05T01:01:56.407Z,44.42334
2022-10-05T01:06:58.101Z,44.95344
2022-10-05T01:11:59.678Z,47.35518
2022-10-05T01:17:01.374Z,47.18687
2022-10-05T01:22:03.053Z,47.60138
2022-10-05T01:27:04.649Z,47.65553
2022-10-05T01:32:06.291Z,49.42521
2022-10-05T01:37:07.908Z,48.27079
2022-10-05T01:42:09.521Z,48.70424
2022-10-05T01:47:11.158Z,48.61601
2022-10-05T01:52:12.734Z,48.41104
2022-10-05T01:57:14.357Z,48.94189
2022-10-05T02:02:16.044Z,48.67771
2022-10-05T02:07:17.625Z,48.82224
2022-10-05T02:12:19.225Z,49.69679
2022-10-05T02:17:20.813Z,50.03327
2022-10-05T02:22:22.444Z,49.50612
2022-10-05T02:27:24.085Z,50.27359
2022-10-05T02:32:25.688Z,50.56294
2022-10-05T02:37:27.321Z,51.20628
2022-10-05T02:42:28.933Z,51.36332
2022-10-05T02:47:30.537Z,51.29623
2022-10-05T02:52:32.121Z,52.09464
2022-10-05T02:57:33.714Z,50.34508
2022-10-05T03:02:35.401Z,51.85019
2022-10-05T03:07:37.023Z,53.21345
2022-10-05T03:12:38.609Z,55.51738
2022-10-05T03:17:40.275Z,54.39994
2022-10-05T03:22:41.908Z,55.1383
2022-10-05T03:27:43.756Z,54.53514
2022-10-05T03:43:00.035Z,50.5165
2022-10-05T03:48:02.207Z,52.38928
2022-10-05T03:50:20.741Z,51.11364
2022-10-05T03:55:22.419Z,56.00245
2022-10-05T04:00:24.000Z,56.9524
2022-10-05T04:05:25.642Z,56.77963
2022-10-05T04:10:27.234Z,55.63612
2022-10-05T04:15:28.942Z,54.74239
2022-10-05T04:20:30.524Z,56.75498
2022-10-05T04:25:32.138Z,57.32698
2022-10-05T04:30:33.710Z,56.86445
2022-10-05T04:35:35.325Z,64.04849
2022-10-05T04:40:37.052Z,59.72933
2022-10-05T04:45:38.666Z,59.29968
2022-10-05T04:50:40.266Z,59.48652
2022-10-05T04:55:41.885Z,59.29177
2022-10-05T05:00:43.539Z,63.94716
2022-10-05T05:06:12.030Z,60.90465
2022-10-05T05:11:19.976Z,59.67256
2022-10-05T05:16:24.229Z,59.71101
2022-10-05T05:21:25.877Z,62.27516
2022-10-05T05:26:27.477Z,63.93868
2022-10-05T05:31:29.253Z,61.52526
2022-10-05T05:36:30.894Z,58.91088
2022-10-05T05:41:32.460Z,56.88205
2022-10-05T05:46:51.263Z,60.28284
2022-10-05T05:52:03.855Z,56.62257
2022-10-05T05:57:05.466Z,56.68751
2022-10-05T06:02:07.195Z,60.30031
2022-10-05T06:07:08.870Z,59.56679
2022-10-05T06:12:10.496Z,61.34066
2022-10-05T06:17:12.112Z,59.09581
2022-10-05T06:22:13.736Z,57.59593
2022-10-05T06:27:15.507Z,58.35067
2022-10-05T06:32:17.113Z,59.59365
2022-10-05T06:37:18.710Z,60.51097
2022-10-05T06:42:20.281Z,64.67408
2022-10-05T06:47:21.881Z,61.03584
2022-10-05T06:52:23.488Z,62.56662
2022-10-05T06:57:25.145Z,60.87755
2022-10-05T07:02:26.876Z,61.03658
2022-10-05T07:07:28.531Z,63.73719
2022-10-05T07:12:30.132Z,65.52127
2022-10-05T07:17:31.752Z,65.98049
2022-10-05T07:22:34.343Z,63.61798
2022-10-05T07:27:36.287Z,67.03501
2022-10-05T07:32:37.867Z,68.29852
2022-10-05T07:37:39.452Z,64.86632
2022-10-05T07:42:48.987Z,63.24789
2022-10-05T07:47:53.493Z,70.12914
2022-10-05T07:52:55.107Z,66.6886
2022-10-05T07:57:56.717Z,67.19784
2022-10-05T08:02:58.574Z,63.02242
2022-10-05T08:08:00.241Z,63.51954
2022-10-05T08:13:01.862Z,63.38648
2022-10-05T08:18:03.482Z,60.72159
2022-10-05T08:23:05.068Z,63.95945
2022-10-05T08:28:06.841Z,62.50606
2022-10-05T08:33:08.489Z,66.3273
2022-10-05T08:38:10.064Z,62.85759
2022-10-05T08:43:11.776Z,70.25563
2022-10-05T08:48:13.356Z,66.14356
2022-10-05T08:53:14.936Z,68.96102
2022-10-05T08:58:16.533Z,69.27588
2022-10-05T09:03:18.243Z,71.21117
2022-10-05T09:08:19.826Z,68.68147
2022-10-05T09:13:21.415Z,66.08268
2022-10-05T09:18:22.974Z,68.19062
2022-10-05T09:23:24.596Z,72.47712
2022-10-05T09:28:26.275Z,67.91975
2022-10-05T09:33:27.906Z,70.67724
2022-10-05T09:38:29.526Z,67.82513
2022-10-05T09:43:31.125Z,67.49891
2022-10-05T09:48:32.751Z,68.37288
2022-10-05T09:53:34.380Z,68.54693
2022-10-05T09:58:36.022Z,69.209
2022-10-05T10:03:37.633Z,69.54031
2022-10-05T10:08:39.234Z,69.82711
2022-10-05T10:13:40.839Z,73.5799
2022-10-05T10:18:42.495Z,72.94069
2022-10-05T10:23:44.110Z,71.47259
2022-10-05T10:28:45.688Z,68.22348
2022-10-05T10:33:47.244Z,71.99346
2022-10-05T10:38:48.798Z,74.9627
2022-10-05T10:43:50.481Z,69.41612
2022-10-05T10:48:52.047Z,67.9787
2022-10-05T10:53:53.612Z,68.74123
2022-10-05T10:58:55.271Z,70.79086
2022-10-05T11:03:56.877Z,79.48604
2022-10-05T11:08:58.496Z,70.28625
2022-10-05T11:14:00.089Z,67.12737
2022-10-05T11:19:01.710Z,70.49315
2022-10-05T11:24:03.301Z,71.53836
2022-10-05T11:29:04.897Z,66.43984
2022-10-05T11:34:06.579Z,67.61092
2022-10-05T11:39:08.153Z,67.89762
2022-10-05T11:44:09.733Z,68.78588
2022-10-05T11:49:11.381Z,67.85108
2022-10-05T11:54:12.957Z,67.59538
2022-10-05T11:59:14.538Z,68.97137
2022-10-05T12:04:16.195Z,68.32341
2022-10-05T12:09:17.808Z,70.70878
2022-10-05T12:14:19.421Z,66.76792
2022-10-05T12:19:20.982Z,70.74672
2022-10-05T12:24:26.668Z,73.32162
2022-10-05T12:29:28.696Z,71.31514
2022-10-05T12:34:30.467Z,76.17892
2022-10-05T12:39:32.050Z,65.38853
2022-10-05T12:44:33.655Z,66.55322
2022-10-05T12:49:35.265Z,67.04372
2022-10-05T12:54:36.980Z,67.9849
2022-10-05T12:59:38.684Z,72.23074
2022-10-05T13:04:40.310Z,77.14816
2022-10-05T13:09:41.875Z,69.0459
2022-10-05T13:14:43.475Z,70.46426
2022-10-05T13:19:45.090Z,73.20415
2022-10-05T13:24:46.659Z,71.21675
2022-10-05T13:29:52.296Z,77.30737
2022-10-05T13:34:55.874Z,74.35188
2022-10-05T13:39:57.437Z,76.84859
2022-10-05T13:44:59.050Z,75.07997
2022-10-05T13:50:00.694Z,65.53455
2022-10-05T13:55:02.386Z,65.92176
2022-10-05T14:00:03.964Z,66.93872
2022-10-05T14:05:05.541Z,67.48303
2022-10-05T14:10:07.126Z,69.986
2022-10-05T14:15:08.706Z,67.07677
2022-10-05T14:20:10.309Z,65.29014
2022-10-05T14:25:11.945Z,72.40388
2022-10-05T14:30:13.609Z,68.69268
2022-10-05T14:35:15.315Z,70.20449
2022-10-05T14:40:16.936Z,66.06583
2022-10-05T14:45:18.557Z,70.91425
2022-10-05T14:50:20.174Z,77.189
2022-10-05T14:55:21.752Z,68.99418
2022-10-05T15:00:23.454Z,69.1376
2022-10-05T15:05:25.060Z,67.46631
2022-10-05T15:10:26.639Z,73.54662
2022-10-05T15:15:28.258Z,70.47435
2022-10-05T15:20:29.868Z,70.14329
2022-10-05T15:25:31.450Z,70.29157
2022-10-05T15:30:33.079Z,68.75182
2022-10-05T15:35:34.748Z,70.65282
2022-10-05T15:40:36.402Z,65.54783
2022-10-05T15:45:38.111Z,68.07123
2022-10-05T15:50:39.738Z,67.45108
2022-10-05T15:55:41.282Z,64.31393
2022-10-05T16:00:42.920Z,62.41831
2022-10-05T16:05:44.509Z,62.44921
2022-10-05T16:10:46.066Z,63.63812
2022-10-05T16:15:47.698Z,63.99245
2022-10-05T16:20:49.333Z,67.20726
2022-10-05T16:25:50.943Z,58.85617
2022-10-05T16:30:52.614Z,56.62727
2022-10-05T16:35:54.246Z,56.13465
2022-10-05T16:41:01.055Z,55.94435
2022-10-05T16:46:03.539Z,57.00463
2022-10-05T16:51:05.154Z,60.47831
2022-10-05T16:56:06.770Z,52.23853
2022-10-05T17:01:08.624Z,51.52381
2022-10-05T17:06:10.295Z,52.08646
2022-10-05T17:11:16.017Z,48.92737
2022-10-05T17:16:18.616Z,54.99364
2022-10-05T17:21:20.247Z,51.11935
2022-10-05T17:26:21.830Z,47.70942
2022-10-05T17:31:23.551Z,47.63978
2022-10-05T17:36:25.191Z,50.96011
2022-10-05T17:41:26.816Z,47.45588
2022-10-05T17:46:28.453Z,45.7358
2022-10-05T17:51:30.125Z,43.67726
2022-10-05T17:56:31.738Z,45.9065
2022-10-05T18:01:33.460Z,42.68452
2022-10-05T18:06:35.081Z,42.28569
2022-10-05T18:11:36.679Z,42.28907
2022-10-05T18:16:38.280Z,41.6101
2022-10-05T18:21:39.925Z,41.82864
2022-10-05T18:26:41.558Z,40.29341
2022-10-05T18:31:43.164Z,39.2348
2022-10-05T18:36:44.749Z,40.42051
2022-10-05T18:41:46.358Z,38.92939
2022-10-05T18:46:47.971Z,38.63236
2022-10-05T18:51:51.853Z,37.8328
2022-10-05T18:56:53.875Z,36.78216
2022-10-05T19:01:55.651Z,36.48338
2022-10-05T19:06:57.290Z,37.66549
2022-10-05T19:11:58.903Z,37.68588
2022-10-05T19:17:00.476Z,36.88179
2022-10-05T19:22:02.097Z,35.24411
2022-10-05T19:27:03.688Z,34.75231
2022-10-05T19:32:05.282Z,34.98741
2022-10-05T19:37:06.943Z,34.95315
2022-10-05T19:42:08.576Z,33.98879
2022-10-05T19:47:10.182Z,33.89192
2022-10-05T19:52:11.836Z,33.12366
2022-10-05T19:57:13.426Z,33.65757
2022-10-05T20:02:15.061Z,38.37182
2022-10-05T20:07:16.635Z,33.90215
2022-10-05T20:12:18.218Z,34.37885
2022-10-05T20:17:19.810Z,32.08839
2022-10-05T20:22:21.404Z,32.38326
2022-10-05T20:27:23.046Z,33.09501
2022-10-05T20:32:28.543Z,30.66904
2022-10-05T20:37:32.120Z,30.69203
2022-10-05T20:42:33.706Z,30.4871
2022-10-05T20:47:35.308Z,30.21287
2022-10-05T20:52:36.941Z,33.53819
2022-10-05T20:57:38.526Z,33.06195
2022-10-05T21:02:40.114Z,34.14477
2022-10-05T21:07:41.672Z,34.27109
2022-10-05T21:12:43.262Z,33.53473
2022-10-05T21:17:44.885Z,35.40462
2022-10-05T21:22:46.509Z,36.02381
2022-10-05T21:27:48.118Z,35.81513
2022-10-05T21:32:49.703Z,35.85151
2022-10-05T21:37:51.307Z,35.13472
2022-10-05T21:42:52.976Z,35.08494
2022-10-05T21:47:54.568Z,33.77152
2022-10-05T21:52:56.231Z,33.72762
2022-10-05T21:57:57.955Z,33.94233
2022-10-05T22:02:59.556Z,32.98428
2022-10-05T22:08:01.160Z,33.05155
2022-10-05T22:13:02.948Z,34.59684
2022-10-05T22:18:04.541Z,34.79028
2022-10-05T22:23:06.154Z,35.01129
2022-10-05T22:28:07.830Z,34.13841
2022-10-05T22:33:09.501Z,32.94113
2022-10-05T22:38:11.066Z,34.32547
2022-10-05T22:43:12.646Z,34.4219
2022-10-05T22:48:14.453Z,35.42578
2022-10-05T22:53:16.034Z,34.9315
2022-10-05T22:58:17.629Z,34.12019
2022-10-05T23:03:19.246Z,36.3012
2022-10-05T23:08:20.818Z,36.04901
2022-10-05T23:13:22.436Z,35.503
2022-10-05T23:18:24.016Z,37.68102
2022-10-05T23:23:25.632Z,38.10122
2022-10-05T23:28:27.563Z,38.16676
2022-10-05T23:33:29.572Z,39.86403
2022-10-05T23:38:31.505Z,40.28093
2022-10-05T23:43:33.465Z,40.62293
2022-10-05T23:48:35.104Z,41.09217
2022-10-05T23:53:36.705Z,41.47999
2022-10-05T23:58:38.277Z,41.69954
